Time;durP1;ratioP1;P1;durP2;ratioP2;P2;SDS_P1;SDS_P2;PMS_P1;PMS_P2;Temp;Humidity;BMP_temperature;BMP_pressure;BME280_temperature;BME280_humidity;BME280_pressure;Samples;Min_cycle;Max_cycle;Signal;HPM_P1;HPM_P2
2022/04/03 00:00:47;;;;;;;;;13.50;11.75;;;;;5.91;42.32;101529.56;5055500;28;45601;-50
2022/04/03 00:03:12;;;;;;;;;18.25;15.25;;;;;6.18;43.42;101567.69;5056100;28;45363;-50
2022/04/03 00:05:39;;;;;;;;;18.75;17.25;;;;;6.16;42.90;101577.91;5055803;28;45357;-49
2022/04/03 00:08:06;;;;;;;;;18.75;18.00;;;;;6.07;42.70;101577.88;5071671;28;46047;-48
2022/04/03 00:10:31;;;;;;;;;18.60;14.20;;;;;6.01;43.18;101569.44;5055845;28;45360;-49
2022/04/03 00:12:57;;;;;;;;;15.00;13.25;;;;;5.75;43.73;101530.31;5055598;28;45701;-52
2022/04/03 00:15:22;;;;;;;;;16.25;13.00;;;;;5.96;43.10;101583.56;5071448;28;45495;-51
2022/04/03 00:17:48;;;;;;;;;13.00;13.00;;;;;5.99;43.17;101576.94;5056069;28;45431;-50
2022/04/03 00:20:14;;;;;;;;;15.25;13.00;;;;;5.97;43.82;101572.50;5055671;28;45960;-51
2022/04/03 00:22:39;;;;;;;;;17.75;16.00;;;;;6.03;43.23;101584.66;5037956;28;45462;-49
2022/04/03 00:25:05;;;;;;;;;23.25;20.50;;;;;5.84;43.80;101562.03;5055510;28;45431;-53
2022/04/03 00:27:31;;;;;;;;;14.00;14.00;;;;;5.87;43.82;101584.53;5071800;28;45906;-52
2022/04/03 00:29:56;;;;;;;;;13.50;12.75;;;;;5.76;43.74;101583.78;5037185;28;47612;-52
2022/04/03 00:32:22;;;;;;;;;16.00;14.00;;;;;5.70;44.16;101582.56;5055336;28;45548;-55
2022/04/03 00:34:47;;;;;;;;;16.50;13.75;;;;;5.19;44.63;101507.94;5071302;28;45356;-49
2022/04/03 00:37:13;;;;;;;;;14.75;14.75;;;;;5.68;44.50;101589.19;5055712;28;45301;-49
2022/04/03 00:39:39;;;;;;;;;16.00;14.00;;;;;5.67;44.36;101582.84;5055408;28;46668;-48
2022/04/03 00:42:07;;;;;;;;;11.75;10.50;;;;;5.63;45.12;101576.03;5055633;28;45362;-48
2022/04/03 00:44:35;;;;;;;;;17.80;12.60;;;;;5.62;44.28;101577.06;5055480;28;45653;-47
2022/04/03 00:47:00;;;;;;;;;16.60;12.80;;;;;5.55;44.67;101584.16;5055488;28;45375;-48
2022/04/03 00:49:26;;;;;;;;;17.50;13.00;;;;;5.45;45.51;101586.09;5054800;28;45557;-50
2022/04/03 00:51:51;;;;;;;;;14.00;14.00;;;;;5.39;44.34;101574.81;5070970;28;45349;-50
2022/04/03 00:54:17;;;;;;;;;13.25;13.25;;;;;5.46;45.41;101594.13;5055360;28;45385;-52
2022/04/03 00:56:42;;;;;;;;;11.00;10.50;;;;;5.17;45.88;101551.66;5055221;28;45430;-48
2022/04/03 00:59:09;;;;;;;;;14.00;14.00;;;;;5.43;46.08;101589.84;5037525;28;45752;-50
2022/04/03 01:01:34;;;;;;;;;15.80;13.80;;;;;5.44;44.72;101579.78;5037773;28;45345;-51
2022/04/03 01:04:00;;;;;;;;;16.00;16.00;;;;;4.54;44.76;101431.88;5037401;28;45374;-54
2022/04/03 01:06:25;;;;;;;;;14.00;14.00;;;;;5.41;45.90;101582.84;5055581;28;45406;-50
2022/04/03 01:08:51;;;;;;;;;17.75;15.00;;;;;5.44;45.17;101579.78;5055287;28;45990;-50
2022/04/03 01:11:20;;;;;;;;;19.25;14.25;;;;;5.50;45.11;101573.72;5055536;28;45375;-50
2022/04/03 01:13:47;;;;;;;;;17.20;15.60;;;;;5.55;45.38;101568.66;5053999;28;45424;-49
2022/04/03 01:16:12;;;;;;;;;19.00;15.00;;;;;5.58;44.98;101581.09;5054413;28;45678;-53
2022/04/03 01:18:38;;;;;;;;;16.00;15.00;;;;;5.56;45.03;101575.81;5055110;28;45287;-54
2022/04/03 01:21:03;;;;;;;;;15.50;13.75;;;;;5.50;44.95;101573.72;5054922;28;45368;-49
2022/04/03 01:23:30;;;;;;;;;12.25;12.00;;;;;5.05;45.62;101528.41;5055222;28;45323;-54
2022/04/03 01:25:55;;;;;;;;;16.40;11.60;;;;;5.35;46.04;101578.00;5055247;28;45373;-50
2022/04/03 01:28:22;;;;;;;;;5.00;4.50;;;;;5.39;46.22;101576.69;5055258;28;46534;-53
2022/04/03 01:30:48;;;;;;;;;12.00;12.00;;;;;5.42;45.86;101581.81;5053861;28;45504;-51
2022/04/03 01:33:13;;;;;;;;;15.25;15.25;;;;;5.43;45.41;101575.34;5055140;28;45377;-50
2022/04/03 01:35:39;;;;;;;;;12.00;12.00;;;;;5.46;45.18;101579.63;5055051;28;45342;-50
2022/04/03 01:38:04;;;;;;;;;16.25;14.00;;;;;5.42;45.53;101574.50;5054832;28;46397;-50
2022/04/03 01:40:32;;;;;;;;;10.00;10.00;;;;;5.15;45.76;101526.47;5036895;28;45462;-48
2022/04/03 01:42:57;;;;;;;;;15.00;12.20;;;;;5.50;45.50;101568.25;5037355;28;45408;-57
2022/04/03 01:45:23;;;;;;;;;12.75;10.25;;;;;5.60;46.31;101570.06;5038635;28;45165;-49
2022/04/03 01:47:49;;;;;;;;;18.00;12.25;;;;;5.61;45.46;101574.47;5058164;28;45826;-47
2022/04/03 01:50:14;;;;;;;;;17.50;15.00;;;;;5.56;46.25;101572.25;5058189;28;45562;-49
2022/04/03 01:52:40;;;;;;;;;17.00;13.25;;;;;5.48;45.97;101572.16;5058273;28;45398;-49
2022/04/03 01:55:06;;;;;;;;;13.75;12.00;;;;;5.51;46.08;101569.13;5058743;28;45276;-48
2022/04/03 01:57:31;;;;;;;;;14.00;13.20;;;;;5.40;46.10;101556.63;5057588;28;47848;-52
2022/04/03 01:59:57;;;;;;;;;13.75;13.75;;;;;5.61;46.12;101574.47;5057963;28;45423;-48
2022/04/03 02:02:22;;;;;;;;;11.25;10.25;;;;;5.51;45.50;101553.63;5057846;28;45342;-51
2022/04/03 02:04:48;;;;;;;;;15.50;13.00;;;;;5.54;45.88;101569.66;5049192;28;45398;-48
2022/04/03 02:07:13;;;;;;;;;17.75;15.50;;;;;5.48;45.91;101569.44;5056452;28;46247;-50
2022/04/03 02:09:39;;;;;;;;;18.50;14.50;;;;;5.55;46.24;101570.53;5055983;28;45386;-51
2022/04/03 02:12:05;;;;;;;;;13.00;11.50;;;;;5.57;46.08;101563.06;5054243;28;45767;-53
2022/04/03 02:14:30;;;;;;;;;15.60;15.40;;;;;5.50;46.41;101567.44;5056763;28;45398;-49
2022/04/03 02:16:57;;;;;;;;;11.25;9.50;;;;;5.46;46.43;101575.06;5057385;28;45711;-53
2022/04/03 02:19:22;;;;;;;;;19.60;14.00;;;;;5.46;46.51;101569.59;5057130;28;45315;-51
2022/04/03 02:21:48;;;;;;;;;15.25;15.25;;;;;5.54;46.33;101569.66;5057723;28;45302;-49
2022/04/03 02:24:13;;;;;;;;;16.00;16.00;;;;;5.46;46.44;101571.47;5057813;28;45315;-50
2022/04/03 02:26:39;;;;;;;;;10.00;9.25;;;;;5.29;46.61;101561.28;5039117;28;46256;-49
2022/04/03 02:29:04;;;;;;;;;8.25;8.00;;;;;5.40;47.09;101578.41;5057652;28;45309;-48
2022/04/03 02:31:30;;;;;;;;;13.50;12.25;;;;;5.36;46.41;101580.59;5057589;28;45329;-48
2022/04/03 02:33:55;;;;;;;;;17.00;17.00;;;;;5.40;47.20;101581.13;5039505;28;45383;-50
2022/04/03 02:36:21;;;;;;;;;14.50;12.25;;;;;5.45;46.87;101580.66;5057139;28;46807;-52
2022/04/03 02:38:46;;;;;;;;;16.00;14.25;;;;;5.49;47.20;101571.16;5057449;28;45783;-50
2022/04/03 02:41:12;;;;;;;;;15.25;13.75;;;;;5.53;46.73;101576.13;5057448;28;45366;-49
2022/04/03 02:43:38;;;;;;;;;9.25;9.25;;;;;5.43;47.52;101576.22;5057565;28;45687;-50
2022/04/03 02:46:03;;;;;;;;;14.50;9.25;;;;;5.35;47.57;101553.50;5057335;28;46023;-49
2022/04/03 02:48:30;;;;;;;;;14.25;14.00;;;;;5.44;46.64;101582.50;5057121;28;45608;-49
2022/04/03 02:50:56;;;;;;;;;18.40;13.80;;;;;5.27;46.59;101544.28;5057147;28;45508;-51
2022/04/03 02:53:21;;;;;;;;;13.00;11.00;;;;;5.49;46.97;101574.72;5057612;28;45826;-52
2022/04/03 02:55:47;;;;;;;;;16.50;13.25;;;;;5.43;47.21;101583.53;5056756;28;47043;-51
2022/04/03 02:58:12;;;;;;;;;16.75;16.75;;;;;5.43;47.22;101583.53;5056859;28;45963;-48
2022/04/03 03:00:37;;;;;;;;;13.50;12.50;;;;;5.45;47.26;101573.34;5039155;28;45657;-49
2022/04/03 03:03:06;;;;;;;;;14.00;13.00;;;;;5.46;46.92;101572.34;5057326;28;45584;-48
2022/04/03 03:05:32;;;;;;;;;12.20;12.20;;;;;5.21;46.76;101522.25;5056636;28;45465;-49
2022/04/03 03:07:58;;;;;;;;;9.40;9.40;;;;;5.41;46.50;101585.56;5038582;28;45441;-50
2022/04/03 03:10:24;;;;;;;;;10.00;9.00;;;;;5.32;47.05;101581.06;5057170;28;45536;-48
2022/04/03 03:12:50;;;;;;;;;13.20;9.60;;;;;5.39;46.83;101582.97;5056907;28;45399;-50
2022/04/03 03:15:16;;;;;;;;;16.00;10.80;;;;;5.35;46.89;101586.19;5056743;28;45371;-52
2022/04/03 03:17:42;;;;;;;;;11.00;11.00;;;;;5.39;47.46;101587.59;5056745;28;45435;-51
2022/04/03 03:20:08;;;;;;;;;14.75;12.50;;;;;5.44;47.50;101587.94;5056986;28;45457;-47
2022/04/03 03:22:33;;;;;;;;;12.00;12.00;;;;;5.36;46.85;101577.00;5056526;28;45403;-51
2022/04/03 03:24:59;;;;;;;;;17.75;12.75;;;;;5.38;47.03;101591.31;5038343;28;45344;-47
2022/04/03 03:27:24;;;;;;;;;13.75;13.75;;;;;5.17;48.16;101567.16;5056524;28;45450;-47
2022/04/03 03:29:50;;;;;;;;;18.75;16.00;;;;;5.36;47.38;101599.66;5056351;28;45334;-51
2022/04/03 03:32:15;;;;;;;;;14.00;12.75;;;;;5.27;47.69;101586.94;5056893;28;45291;-49
2022/04/03 03:34:41;;;;;;;;;14.25;14.25;;;;;5.34;47.24;101598.94;5056462;28;45976;-49
2022/04/03 03:37:08;;;;;;;;;15.50;13.75;;;;;5.34;48.40;101601.66;5056285;28;45724;-48
2022/04/03 03:39:34;;;;;;;;;14.00;12.60;;;;;5.37;47.53;101601.34;5056122;28;45662;-49
2022/04/03 03:42:00;;;;;;;;;10.50;7.00;;;;;5.34;47.54;101608.97;5056659;28;45432;-49
2022/04/03 03:44:25;;;;;;;;;11.50;11.50;;;;;5.29;48.06;101602.13;5037974;28;47024;-50
2022/04/03 03:46:50;;;;;;;;;15.50;15.50;;;;;5.31;47.44;101596.53;5056604;28;45488;-50
2022/04/03 03:49:16;;;;;;;;;12.00;12.00;;;;;5.28;47.79;101594.97;5056476;28;45767;-52
2022/04/03 03:51:42;;;;;;;;;11.75;11.75;;;;;5.29;47.42;101593.13;5038275;28;45995;-50
2022/04/03 03:54:08;;;;;;;;;10.00;9.00;;;;;5.12;47.78;101562.16;5056077;28;45934;-53
2022/04/03 03:56:33;;;;;;;;;14.00;10.00;;;;;5.33;47.35;101602.66;5055771;28;45235;-51
2022/04/03 03:58:59;;;;;;;;;11.00;10.50;;;;;5.28;47.31;101597.69;5056410;28;45206;-50
2022/04/03 04:01:24;;;;;;;;;14.00;12.75;;;;;5.36;47.94;101599.66;5072646;28;45554;-52
2022/04/03 04:03:50;;;;;;;;;11.50;9.75;;;;;5.28;48.29;101584.09;5055842;28;46825;-48
2022/04/03 04:06:15;;;;;;;;;14.75;10.50;;;;;5.35;47.71;101594.34;5056805;28;45360;-49
2022/04/03 04:08:42;;;;;;;;;9.75;9.75;;;;;5.31;46.97;101591.09;5055440;28;45443;-48
2022/04/03 04:11:07;;;;;;;;;12.00;9.50;;;;;5.38;48.03;101602.19;5056327;28;45469;-47
2022/04/03 04:13:33;;;;;;;;;9.25;9.00;;;;;5.34;48.05;101603.53;5056001;28;45361;-48
2022/04/03 04:15:58;;;;;;;;;12.75;10.00;;;;;5.12;46.96;101584.78;5054370;28;45623;-48
2022/04/03 04:18:24;;;;;;;;;10.50;10.50;;;;;5.17;48.26;101603.38;5056324;28;45433;-49
2022/04/03 04:20:52;;;;;;;;;9.75;8.75;;;;;5.28;47.47;101605.88;5038372;28;45439;-52
2022/04/03 04:23:18;;;;;;;;;12.60;10.80;;;;;4.94;47.64;101575.75;5021088;28;47574;-50
2022/04/03 04:25:44;;;;;;;;;13.60;10.00;;;;;5.16;47.45;101615.25;5055845;28;45441;-53
2022/04/03 04:28:10;;;;;;;;;13.00;11.50;;;;;5.14;48.51;101612.69;5055853;28;45134;-50
2022/04/03 04:30:37;;;;;;;;;10.00;10.00;;;;;5.09;48.01;101630.50;5056629;28;45849;-50
2022/04/03 04:33:02;;;;;;;;;12.60;10.20;;;;;5.07;48.30;101624.38;5055468;28;46906;-49
2022/04/03 04:35:28;;;;;;;;;12.75;11.50;;;;;5.10;47.93;101630.34;5055940;28;45288;-49
2022/04/03 04:37:54;;;;;;;;;13.25;11.00;;;;;4.34;47.48;101499.16;5055664;28;45574;-47
2022/04/03 04:40:19;;;;;;;;;12.50;12.50;;;;;5.12;47.91;101632.94;5056051;28;45395;-49
2022/04/03 04:42:44;;;;;;;;;8.25;6.50;;;;;5.10;48.26;101624.03;5055586;28;45656;-49
2022/04/03 04:45:10;;;;;;;;;12.25;10.25;;;;;4.99;48.19;101630.56;5056016;28;45328;-50
2022/04/03 04:47:37;;;;;;;;;11.50;10.25;;;;;4.90;48.54;101632.34;5055606;28;45328;-52
2022/04/03 04:50:05;;;;;;;;;12.40;9.80;;;;;4.73;48.41;101609.53;5056125;28;45433;-51
2022/04/03 04:52:31;;;;;;;;;11.80;9.00;;;;;4.94;48.23;101636.47;5055509;28;46163;-49
2022/04/03 04:54:56;;;;;;;;;13.50;13.25;;;;;4.97;48.60;101636.16;5055456;28;45329;-51
2022/04/03 04:57:22;;;;;;;;;11.50;11.50;;;;;4.99;48.47;101638.72;5041114;28;45397;-49
2022/04/03 04:59:49;;;;;;;;;9.50;9.50;;;;;4.99;48.48;101649.63;5055526;28;45827;-49
2022/04/03 05:02:14;;;;;;;;;10.25;9.00;;;;;4.78;48.44;101619.94;5054749;28;46081;-50
2022/04/03 05:04:40;;;;;;;;;12.00;10.25;;;;;4.73;49.30;101628.56;5054034;28;45530;-50
2022/04/03 05:07:05;;;;;;;;;8.00;6.00;;;;;4.83;49.08;101653.00;5055254;28;45455;-49
2022/04/03 05:09:31;;;;;;;;;9.00;8.75;;;;;4.75;49.16;101657.34;5055076;28;45398;-48
2022/04/03 05:11:57;;;;;;;;;10.20;8.80;;;;;4.65;49.56;101651.09;5070418;28;48430;-48
2022/04/03 05:14:22;;;;;;;;;9.75;9.75;;;;;4.64;48.74;101651.25;5054887;28;45443;-48
2022/04/03 05:16:48;;;;;;;;;6.50;6.50;;;;;4.60;49.80;101648.81;5070825;28;45416;-51
2022/04/03 05:19:13;;;;;;;;;11.00;9.00;;;;;4.29;49.51;101602.00;5071089;28;45398;-51
2022/04/03 05:21:40;;;;;;;;;13.50;9.75;;;;;4.40;49.81;101653.47;5057056;28;46013;-51
2022/04/03 05:24:06;;;;;;;;;10.80;10.20;;;;;4.42;49.14;101661.47;5040209;28;45336;-50
2022/04/03 05:26:31;;;;;;;;;10.25;9.75;;;;;4.40;48.98;101660.78;5027379;28;45309;-50
2022/04/03 05:28:57;;;;;;;;;8.75;8.75;;;;;4.01;49.55;101612.84;5058616;28;45622;-46
2022/04/03 05:31:25;;;;;;;;;10.50;7.75;;;;;4.23;49.31;101662.41;5058583;28;45345;-49
2022/04/03 05:33:50;;;;;;;;;15.60;12.80;;;;;4.09;49.79;101661.00;5058427;28;45447;-48
2022/04/03 05:36:15;;;;;;;;;15.00;13.00;;;;;4.04;50.30;101670.47;5058554;28;45353;-57
2022/04/03 05:38:41;;;;;;;;;14.50;11.25;;;;;3.98;50.38;101670.16;5058554;28;45510;-49
2022/04/03 05:41:07;;;;;;;;;14.75;12.00;;;;;3.93;50.40;101679.63;5058038;28;45368;-50
2022/04/03 05:43:32;;;;;;;;;11.75;8.50;;;;;3.90;50.45;101660.06;5058207;28;45633;-55
2022/04/03 05:45:58;;;;;;;;;8.75;8.75;;;;;4.00;50.24;101674.47;5058394;28;45393;-50
2022/04/03 05:48:23;;;;;;;;;12.00;11.00;;;;;4.01;50.43;101668.00;5058555;28;45378;-49
2022/04/03 05:50:50;;;;;;;;;14.50;11.00;;;;;4.12;49.87;101677.03;5057769;28;46241;-51
2022/04/03 05:53:15;;;;;;;;;11.40;11.40;;;;;4.07;49.27;101658.44;5056742;28;45409;-53
2022/04/03 05:55:41;;;;;;;;;9.25;8.75;;;;;3.69;49.58;101592.31;5056934;28;45404;-51
2022/04/03 05:58:07;;;;;;;;;15.00;11.25;;;;;4.13;49.79;101678.72;5058361;28;45500;-52
2022/04/03 06:00:34;;;;;;;;;7.80;5.80;;;;;4.15;49.72;101683.00;5058074;28;45306;-53
2022/04/03 06:03:01;;;;;;;;;11.60;11.60;;;;;4.23;50.02;101682.28;5057884;28;45326;-52
2022/04/03 06:05:26;;;;;;;;;10.20;9.60;;;;;4.29;49.27;101680.84;5057972;28;45425;-49
2022/04/03 06:07:52;;;;;;;;;12.00;9.75;;;;;4.07;48.84;101644.84;5074031;28;45342;-53
2022/04/03 06:10:19;;;;;;;;;17.00;9.75;;;;;4.24;48.80;101672.25;5057465;28;45883;-50
2022/04/03 06:12:54;;;;;;;;;12.00;12.00;;;;;4.27;49.01;101682.84;5058057;28;45206;-50
2022/04/03 06:15:19;;;;;;;;;15.80;11.80;;;;;4.31;49.07;101679.69;5057576;28;45841;-49
2022/04/03 06:17:47;;;;;;;;;13.00;11.75;;;;;4.26;48.35;101671.13;5058034;28;45605;-50
2022/04/03 06:20:13;;;;;;;;;11.60;9.40;;;;;4.40;48.07;101690.66;5056024;28;46955;-50
2022/04/03 06:22:38;;;;;;;;;11.00;9.00;;;;;4.10;48.24;101641.84;5039513;28;45319;-49
2022/04/03 06:25:06;;;;;;;;;15.25;14.75;;;;;4.43;48.25;101699.38;5073055;28;45459;-48
2022/04/03 06:27:32;;;;;;;;;10.50;10.50;;;;;4.42;47.84;101710.41;5039901;28;45268;-49
2022/04/03 06:29:57;;;;;;;;;15.50;12.25;;;;;4.38;47.79;101712.56;5035895;28;45567;-49
2022/04/03 06:32:23;;;;;;;;;13.25;12.00;;;;;3.99;48.47;101664.59;5034059;28;45444;-50
2022/04/03 06:34:48;;;;;;;;;11.75;8.75;;;;;4.32;48.36;101711.28;5035451;28;45387;-48
2022/04/03 06:37:14;;;;;;;;;13.25;12.25;;;;;4.03;48.24;101670.59;5037288;27;45278;-48
2022/04/03 06:39:39;;;;;;;;;10.50;10.50;;;;;3.88;47.58;101646.59;4986565;28;46046;-49
2022/04/03 06:42:05;;;;;;;;;14.50;14.25;;;;;4.20;48.40;101716.06;5039086;28;45434;-51
2022/04/03 06:44:31;;;;;;;;;14.25;12.50;;;;;3.95;48.48;101660.44;5057141;28;45390;-54
2022/04/03 06:46:56;;;;;;;;;11.75;11.75;;;;;4.26;48.23;101713.75;5039738;28;45604;-50
2022/04/03 06:49:22;;;;;;;;;15.00;11.00;;;;;4.22;47.80;101715.91;5057178;28;45620;-49
2022/04/03 06:51:47;;;;;;;;;16.25;12.75;;;;;4.28;47.41;101725.34;5038940;28;45398;-51
2022/04/03 06:54:13;;;;;;;;;12.25;11.50;;;;;4.26;47.98;101732.78;5057253;28;45292;-50
2022/04/03 06:56:38;;;;;;;;;12.25;12.00;;;;;4.29;48.18;101724.31;5038710;28;45573;-48
2022/04/03 06:59:04;;;;;;;;;8.00;8.00;;;;;4.32;47.61;101738.47;5056151;28;47255;-55
2022/04/03 07:01:30;;;;;;;;;13.75;10.75;;;;;4.19;48.26;101738.81;5072929;28;45459;-53
2022/04/03 07:03:55;;;;;;;;;15.00;11.75;;;;;3.74;47.66;101663.34;5057053;28;45445;-54
2022/04/03 07:06:21;;;;;;;;;16.75;13.00;;;;;4.27;48.35;101748.09;5036256;27;45819;-53
2022/04/03 07:08:48;;;;;;;;;11.50;11.50;;;;;4.31;48.00;101735.91;5056544;28;45567;-49
2022/04/03 07:11:15;;;;;;;;;4.80;4.80;;;;;4.30;47.69;101739.63;5057120;28;45329;-51
2022/04/03 07:13:40;;;;;;;;;15.00;13.20;;;;;4.18;47.77;101734.34;5039139;28;45454;-51
2022/04/03 07:16:06;;;;;;;;;11.00;11.00;;;;;4.16;47.70;101744.50;5055441;28;45726;-49
2022/04/03 07:18:34;;;;;;;;;16.25;11.00;;;;;4.03;47.19;101708.63;5055808;28;46328;-50
2022/04/03 07:21:00;;;;;;;;;11.60;9.40;;;;;4.33;47.82;101747.50;5056588;28;45394;-50
2022/04/03 07:23:25;;;;;;;;;10.00;10.00;;;;;4.17;47.44;101702.75;5056784;28;45506;-51
2022/04/03 07:25:50;;;;;;;;;13.75;12.25;;;;;4.29;46.83;101708.88;5055325;28;45464;-52
2022/04/03 07:28:16;;;;;;;;;13.50;10.75;;;;;4.59;47.15;101758.59;5054841;28;46167;-53
2022/04/03 07:30:42;;;;;;;;;11.50;9.75;;;;;4.54;47.10;101762.78;5038675;27;45477;-50
2022/04/03 07:33:07;;;;;;;;;13.50;12.25;;;;;4.61;46.95;101761.16;5056273;28;45362;-50
2022/04/03 07:35:33;;;;;;;;;12.00;8.75;;;;;4.70;46.70;101757.56;5072227;28;45464;-51
2022/04/03 07:37:59;;;;;;;;;13.50;11.50;;;;;4.70;46.40;101754.84;5056490;28;46837;-51
2022/04/03 07:40:24;;;;;;;;;14.00;11.00;;;;;4.63;46.07;101767.31;5055874;28;45322;-55
2022/04/03 07:42:51;;;;;;;;;8.00;8.00;;;;;4.73;46.45;101760.00;5036214;28;45407;-53
2022/04/03 07:45:17;;;;;;;;;12.80;11.40;;;;;4.74;45.66;101764.41;5056066;28;45321;-53
2022/04/03 07:47:47;;;;;;;;;13.75;12.00;;;;;4.78;45.92;101772.28;5056330;28;45323;-54
2022/04/03 07:50:13;;;;;;;;;8.20;8.20;;;;;4.56;45.37;101720.84;5056480;28;45366;-53
2022/04/03 07:52:38;;;;;;;;;6.00;6.00;;;;;4.87;45.32;101765.97;5056154;28;45633;-51
2022/04/03 07:55:04;;;;;;;;;10.75;9.00;;;;;4.83;45.33;101756.38;5055081;28;45812;-54
2022/04/03 07:57:30;;;;;;;;;11.60;10.00;;;;;4.83;44.69;101768.13;5059087;28;46140;-51
2022/04/03 07:59:55;;;;;;;;;8.50;8.50;;;;;4.48;44.79;101726.13;5055847;28;45383;-53
2022/04/03 08:02:21;;;;;;;;;9.00;9.00;;;;;4.75;44.88;101777.00;5088523;27;45354;-53
2022/04/03 08:04:46;;;;;;;;;8.25;8.25;;;;;4.69;45.63;101777.59;5046411;28;45379;-52
2022/04/03 08:07:12;;;;;;;;;12.25;9.00;;;;;4.71;45.03;101778.31;5053029;28;45621;-49
2022/04/03 08:09:38;;;;;;;;;9.50;9.50;;;;;4.80;45.04;101783.88;5054210;28;46158;-49
2022/04/03 08:12:05;;;;;;;;;7.60;7.60;;;;;4.87;45.36;101787.72;5055854;28;45491;-49
2022/04/03 08:14:31;;;;;;;;;10.75;10.75;;;;;4.91;44.59;101789.13;5071387;27;45582;-48
2022/04/03 08:16:56;;;;;;;;;10.50;10.25;;;;;4.83;44.43;101780.84;5055421;28;45438;-50
2022/04/03 08:19:22;;;;;;;;;9.00;9.00;;;;;4.80;43.63;101789.31;5054270;28;45404;-50
2022/04/03 08:21:47;;;;;;;;;12.00;9.50;;;;;4.85;44.42;101784.28;5055530;28;45397;-50
2022/04/03 08:24:12;;;;;;;;;16.25;10.25;;;;;4.60;44.52;101737.72;5055925;28;45500;-50
2022/04/03 08:26:38;;;;;;;;;12.25;9.00;;;;;4.79;43.78;101765.84;5055219;28;45845;-49
2022/04/03 08:29:04;;;;;;;;;12.00;8.75;;;;;4.87;43.44;101801.31;5053847;28;45631;-50
2022/04/03 08:31:29;;;;;;;;;6.00;5.00;;;;;4.86;43.44;101795.00;5054081;28;45416;-48
2022/04/03 08:33:55;;;;;;;;;12.00;9.00;;;;;4.90;43.56;101789.28;5055059;28;45623;-54
2022/04/03 08:36:20;;;;;;;;;10.50;6.00;;;;;4.83;43.81;101753.66;5055027;28;45547;-51
2022/04/03 08:38:46;;;;;;;;;10.50;8.50;;;;;5.15;43.30;101798.63;5053582;28;45391;-51
2022/04/03 08:41:12;;;;;;;;;12.00;9.25;;;;;5.21;42.90;101792.59;5055486;28;45357;-51
2022/04/03 08:43:40;;;;;;;;;8.50;6.00;;;;;5.24;42.76;101795.00;5052570;28;45275;-52
2022/04/03 08:46:06;;;;;;;;;8.60;8.40;;;;;5.08;41.92;101759.41;5054984;28;46024;-54
2022/04/03 08:48:32;;;;;;;;;6.00;6.00;;;;;5.23;41.43;101778.84;5053358;28;45845;-51
2022/04/03 08:50:58;;;;;;;;;11.25;9.25;;;;;5.35;41.91;101793.09;5055042;28;45460;-49
2022/04/03 08:53:24;;;;;;;;;6.00;6.00;;;;;5.38;42.15;101795.50;5070416;28;45591;-51
2022/04/03 08:55:50;;;;;;;;;8.00;8.00;;;;;5.54;42.20;101803.88;5053470;28;45464;-50
2022/04/03 08:58:17;;;;;;;;;10.00;9.00;;;;;5.62;41.12;101796.81;5054685;28;45333;-49
2022/04/03 09:00:42;;;;;;;;;6.00;5.80;;;;;5.67;40.41;101792.59;5055199;28;45322;-50
2022/04/03 09:03:08;;;;;;;;;5.75;5.75;;;;;5.75;40.99;101794.56;5055553;28;45410;-53
2022/04/03 09:05:37;;;;;;;;;8.00;5.75;;;;;5.88;40.97;101790.59;5014844;28;45856;-52
2022/04/03 09:08:04;;;;;;;;;10.20;8.60;;;;;5.94;40.50;101793.56;5021170;28;46041;-54
2022/04/03 09:10:30;;;;;;;;;7.60;7.60;;;;;5.96;40.45;101799.72;5037133;28;45376;-56
2022/04/03 09:12:56;;;;;;;;;11.80;9.40;;;;;5.99;39.32;101794.97;5055258;28;45304;-54
2022/04/03 09:15:24;;;;;;;;;0.00;0.00;;;;;6.05;40.26;101810.72;5054989;28;45449;-53
2022/04/03 09:18:02;;;;;;;;;9.00;7.80;;;;;6.02;40.02;101789.22;5070372;28;45272;-54
2022/04/03 09:20:36;;;;;;;;;6.80;5.60;;;;;6.02;39.94;101795.53;5036087;28;45441;-53
2022/04/03 09:23:06;;;;;;;;;5.60;5.60;;;;;5.86;39.90;101765.41;5055382;28;45472;-50
2022/04/03 09:25:36;;;;;;;;;4.60;4.60;;;;;6.16;39.66;101798.72;5030944;28;46039;-48
2022/04/03 09:28:06;;;;;;;;;9.60;9.60;;;;;6.26;38.16;101790.47;5053931;28;45400;-54
2022/04/03 09:30:36;;;;;;;;;5.60;3.20;;;;;6.31;36.96;101804.50;5054498;28;45373;-48
2022/04/03 09:33:03;;;;;;;;;3.80;3.80;;;;;6.31;36.55;101785.41;5052148;28;45501;-48
2022/04/03 09:35:51;;;;;;;;;5.60;4.80;;;;;6.43;35.36;101791.44;5035415;28;47486;-53
2022/04/03 09:38:17;;;;;;;;;5.40;4.40;;;;;6.55;37.38;101797.53;5054503;28;45303;-50
2022/04/03 09:40:44;;;;;;;;;3.20;3.20;;;;;6.64;35.66;101796.56;5035299;28;45402;-52
2022/04/03 09:43:18;;;;;;;;;4.00;2.80;;;;;6.37;34.73;101757.50;5053649;28;45409;-51
2022/04/03 09:46:04;;;;;;;;;2.00;2.00;;;;;6.63;35.41;101792.97;5053565;28;45776;-52
2022/04/03 09:48:34;;;;;;;;;4.60;2.00;;;;;6.84;34.12;101789.00;5053957;28;45509;-48
2022/04/03 09:51:19;;;;;;;;;6.80;2.00;;;;;6.86;33.64;101797.91;5013404;28;45476;-51
2022/04/03 09:53:52;;;;;;;;;1.40;1.40;;;;;6.91;33.04;101789.22;5037041;28;45780;-49
2022/04/03 09:56:20;;;;;;;;;2.80;2.00;;;;;6.98;33.28;101786.72;5030771;28;46569;-50
2022/04/03 09:58:49;;;;;;;;;4.40;2.00;;;;;7.16;32.80;101792.91;5049694;28;45367;-50
2022/04/03 10:01:34;;;;;;;;;0.00;0.00;;;;;7.25;32.82;101801.19;5050125;28;45486;-49
2022/04/03 10:04:04;;;;;;;;;0.00;0.00;;;;;7.27;32.57;101767.19;5050466;28;45506;-49
2022/04/03 10:06:30;;;;;;;;;1.00;1.00;;;;;7.42;33.34;101778.34;5033235;28;47495;-50
2022/04/03 10:08:56;;;;;;;;;2.00;1.00;;;;;7.54;31.57;101780.78;5028399;28;45574;-54
2022/04/03 10:11:22;;;;;;;;;6.80;4.20;;;;;7.66;32.52;101784.06;5066875;28;45438;-51
2022/04/03 10:13:48;;;;;;;;;2.00;1.00;;;;;7.77;30.17;101791.06;5069398;28;45422;-52
2022/04/03 10:16:15;;;;;;;;;3.00;2.00;;;;;7.50;31.02;101739.28;5053138;28;46945;-49
2022/04/03 10:18:41;;;;;;;;;1.00;1.00;;;;;7.81;31.62;101779.66;5034856;28;45559;-48
2022/04/03 10:21:08;;;;;;;;;4.80;2.00;;;;;7.65;31.73;101742.22;5067427;28;45567;-49
2022/04/03 10:23:34;;;;;;;;;2.00;2.00;;;;;7.93;30.95;101776.56;4998386;28;47103;-50
2022/04/03 10:26:00;;;;;;;;;1.00;1.00;;;;;7.40;31.34;101689.41;5034225;28;45922;-50
2022/04/03 10:28:25;;;;;;;;;2.00;2.00;;;;;7.96;31.19;101771.63;5051000;28;45392;-52
2022/04/03 10:30:59;;;;;;;;;2.00;1.00;;;;;8.05;31.69;101777.97;5034706;28;45699;-50
2022/04/03 10:33:24;;;;;;;;;1.00;1.00;;;;;8.12;31.81;101778.16;5051881;28;45590;-49
2022/04/03 10:36:03;;;;;;;;;3.75;2.75;;;;;8.06;30.31;101776.94;5033305;28;47334;-50
2022/04/03 10:38:36;;;;;;;;;1.20;1.20;;;;;8.09;30.67;101773.00;5052974;28;45663;-47
2022/04/03 10:41:02;;;;;;;;;3.40;3.40;;;;;8.13;31.32;101767.03;5033640;28;45581;-53
2022/04/03 10:43:29;;;;;;;;;5.75;5.75;;;;;8.19;31.70;101773.72;5051588;28;45466;-49
2022/04/03 10:45:55;;;;;;;;;8.20;4.20;;;;;8.41;31.48;101772.16;5032641;28;45861;-51
2022/04/03 10:48:20;;;;;;;;;3.00;1.50;;;;;8.55;30.60;101780.72;5052674;28;45544;-49
2022/04/03 10:51:05;;;;;;;;;1.25;1.25;;;;;8.24;31.25;101730.28;5023316;28;45487;-47
2022/04/03 10:53:41;;;;;;;;;8.60;7.20;;;;;8.57;30.41;101766.84;5052892;28;45771;-51
2022/04/03 10:56:19;;;;;;;;;2.80;2.80;;;;;8.54;31.38;101752.50;5034564;28;46571;-51
2022/04/03 10:58:49;;;;;;;;;2.60;1.60;;;;;8.45;30.65;101760.88;5032619;28;45495;-49
2022/04/03 11:01:30;;;;;;;;;3.00;3.00;;;;;8.37;29.95;101759.84;5034609;28;45479;-51
2022/04/03 11:03:59;;;;;;;;;3.00;2.00;;;;;8.35;31.23;101759.19;5052781;28;45397;-53
2022/04/03 11:06:27;;;;;;;;;2.20;2.20;;;;;8.27;31.30;101716.25;5050743;28;48108;-56
2022/04/03 11:09:20;;;;;;;;;5.20;3.80;;;;;8.50;30.21;101715.53;5052327;28;45475;-47
2022/04/03 11:11:53;;;;;;;;;6.00;6.00;;;;;8.60;30.40;101717.25;5050754;28;45909;-53
2022/04/03 11:14:53;;;;;;;;;5.00;3.00;;;;;8.75;30.80;101737.41;5052556;28;45469;-50
2022/04/03 11:17:40;;;;;;;;;5.60;5.00;;;;;8.48;30.96;101692.13;5051988;28;46279;-49
2022/04/03 11:20:06;;;;;;;;;7.20;5.80;;;;;8.94;31.22;101729.81;5044766;28;45473;-50
2022/04/03 11:22:31;;;;;;;;;2.00;2.00;;;;;9.11;30.79;101729.75;5051173;28;45461;-49